sensor_id;sensor_type;location;lat;lon;timestamp;temperature;humidity
15105;DHT22;7653;48.994;9.212;2023-07-31T00:00:15;15.70;69.80
15105;DHT22;7653;48.994;9.212;2023-07-31T00:02:41;15.70;71.00
15105;DHT22;7653;48.994;9.212;2023-07-31T00:05:08;15.80;70.20
15105;DHT22;7653;48.994;9.212;2023-07-31T00:07:34;15.80;68.80
15105;DHT22;7653;48.994;9.212;2023-07-31T00:10:00;15.90;68.70
15105;DHT22;7653;48.994;9.212;2023-07-31T00:12:25;15.90;65.10
15105;DHT22;7653;48.994;9.212;2023-07-31T00:14:51;15.80;65.30
15105;DHT22;7653;48.994;9.212;2023-07-31T00:17:17;15.60;65.20
15105;DHT22;7653;48.994;9.212;2023-07-31T00:19:43;15.60;67.60
15105;DHT22;7653;48.994;9.212;2023-07-31T00:22:09;15.60;68.70
15105;DHT22;7653;48.994;9.212;2023-07-31T00:24:34;15.70;69.20
15105;DHT22;7653;48.994;9.212;2023-07-31T00:27:00;15.70;69.60
15105;DHT22;7653;48.994;9.212;2023-07-31T00:29:25;15.80;65.40
15105;DHT22;7653;48.994;9.212;2023-07-31T00:31:51;15.50;65.10
15105;DHT22;7653;48.994;9.212;2023-07-31T00:34:17;15.50;67.20
15105;DHT22;7653;48.994;9.212;2023-07-31T00:36:42;15.30;68.20
15105;DHT22;7653;48.994;9.212;2023-07-31T00:39:08;15.10;71.20
15105;DHT22;7653;48.994;9.212;2023-07-31T00:41:33;15.00;74.20
15105;DHT22;7653;48.994;9.212;2023-07-31T00:43:59;14.80;74.70
15105;DHT22;7653;48.994;9.212;2023-07-31T00:46:25;14.70;76.40
15105;DHT22;7653;48.994;9.212;2023-07-31T00:48:50;14.70;78.80
15105;DHT22;7653;48.994;9.212;2023-07-31T00:51:16;14.80;78.50
15105;DHT22;7653;48.994;9.212;2023-07-31T00:53:43;14.90;76.50
15105;DHT22;7653;48.994;9.212;2023-07-31T00:56:09;15.00;75.40
15105;DHT22;7653;48.994;9.212;2023-07-31T00:58:35;15.00;75.30
15105;DHT22;7653;48.994;9.212;2023-07-31T01:01:01;15.00;76.50
15105;DHT22;7653;48.994;9.212;2023-07-31T01:03:26;15.00;75.10
15105;DHT22;7653;48.994;9.212;2023-07-31T01:11:10;14.70;76.90
15105;DHT22;7653;48.994;9.212;2023-07-31T01:13:40;14.70;76.20
15105;DHT22;7653;48.994;9.212;2023-07-31T01:16:06;14.70;76.50
15105;DHT22;7653;48.994;9.212;2023-07-31T01:18:31;14.80;75.00
15105;DHT22;7653;48.994;9.212;2023-07-31T01:26:29;14.50;77.70
15105;DHT22;7653;48.994;9.212;2023-07-31T01:29:03;14.60;78.00
15105;DHT22;7653;48.994;9.212;2023-07-31T01:31:32;14.60;78.00
15105;DHT22;7653;48.994;9.212;2023-07-31T01:34:01;14.60;77.60
15105;DHT22;7653;48.994;9.212;2023-07-31T01:36:27;14.60;76.90
15105;DHT22;7653;48.994;9.212;2023-07-31T01:38:58;14.60;76.90
15105;DHT22;7653;48.994;9.212;2023-07-31T01:41:24;14.40;79.00
15105;DHT22;7653;48.994;9.212;2023-07-31T01:43:50;14.50;79.60
15105;DHT22;7653;48.994;9.212;2023-07-31T01:46:16;14.30;80.30
15105;DHT22;7653;48.994;9.212;2023-07-31T01:48:41;14.30;82.80
15105;DHT22;7653;48.994;9.212;2023-07-31T01:51:07;14.30;84.40
15105;DHT22;7653;48.994;9.212;2023-07-31T01:53:33;14.20;84.30
15105;DHT22;7653;48.994;9.212;2023-07-31T01:55:59;14.20;87.00
15105;DHT22;7653;48.994;9.212;2023-07-31T01:58:24;14.40;87.60
15105;DHT22;7653;48.994;9.212;2023-07-31T02:00:50;14.50;85.70
15105;DHT22;7653;48.994;9.212;2023-07-31T02:03:16;14.50;84.40
15105;DHT22;7653;48.994;9.212;2023-07-31T02:05:45;14.40;83.00
15105;DHT22;7653;48.994;9.212;2023-07-31T02:08:11;14.50;83.10
15105;DHT22;7653;48.994;9.212;2023-07-31T02:10:37;14.50;81.30
15105;DHT22;7653;48.994;9.212;2023-07-31T02:13:02;14.60;80.50
15105;DHT22;7653;48.994;9.212;2023-07-31T02:15:30;14.50;81.80
15105;DHT22;7653;48.994;9.212;2023-07-31T02:17:55;14.50;83.10
15105;DHT22;7653;48.994;9.212;2023-07-31T02:20:21;14.50;83.10
15105;DHT22;7653;48.994;9.212;2023-07-31T02:22:46;14.60;83.20
15105;DHT22;7653;48.994;9.212;2023-07-31T02:25:12;14.60;83.10
15105;DHT22;7653;48.994;9.212;2023-07-31T02:27:38;14.70;81.20
15105;DHT22;7653;48.994;9.212;2023-07-31T02:30:04;14.70;80.10
15105;DHT22;7653;48.994;9.212;2023-07-31T02:32:29;14.70;78.10
15105;DHT22;7653;48.994;9.212;2023-07-31T02:34:55;14.60;77.30
15105;DHT22;7653;48.994;9.212;2023-07-31T02:37:21;14.30;81.40
15105;DHT22;7653;48.994;9.212;2023-07-31T02:39:46;14.30;84.20
15105;DHT22;7653;48.994;9.212;2023-07-31T02:42:13;14.50;83.10
15105;DHT22;7653;48.994;9.212;2023-07-31T02:44:39;14.70;83.30
15105;DHT22;7653;48.994;9.212;2023-07-31T02:47:04;14.70;79.10
15105;DHT22;7653;48.994;9.212;2023-07-31T02:49:30;14.90;77.80
15105;DHT22;7653;48.994;9.212;2023-07-31T02:51:56;15.00;74.20
15105;DHT22;7653;48.994;9.212;2023-07-31T02:54:21;15.10;72.30
15105;DHT22;7653;48.994;9.212;2023-07-31T02:56:47;15.10;72.40
15105;DHT22;7653;48.994;9.212;2023-07-31T02:59:13;15.00;70.50
15105;DHT22;7653;48.994;9.212;2023-07-31T03:01:39;15.00;70.90
15105;DHT22;7653;48.994;9.212;2023-07-31T03:04:05;15.00;71.40
15105;DHT22;7653;48.994;9.212;2023-07-31T03:06:30;15.00;72.30
15105;DHT22;7653;48.994;9.212;2023-07-31T03:08:56;15.00;74.20
15105;DHT22;7653;48.994;9.212;2023-07-31T03:11:21;14.90;75.40
15105;DHT22;7653;48.994;9.212;2023-07-31T03:13:47;14.90;74.80
15105;DHT22;7653;48.994;9.212;2023-07-31T03:16:13;15.00;74.20
15105;DHT22;7653;48.994;9.212;2023-07-31T03:18:38;14.90;74.10
15105;DHT22;7653;48.994;9.212;2023-07-31T03:21:04;14.70;78.30
15105;DHT22;7653;48.994;9.212;2023-07-31T03:23:30;14.70;80.90
15105;DHT22;7653;48.994;9.212;2023-07-31T03:28:22;14.80;82.30
15105;DHT22;7653;48.994;9.212;2023-07-31T03:30:48;14.70;81.00
15105;DHT22;7653;48.994;9.212;2023-07-31T03:33:14;14.70;83.20
15105;DHT22;7653;48.994;9.212;2023-07-31T03:35:39;14.60;83.30
15105;DHT22;7653;48.994;9.212;2023-07-31T03:38:05;14.60;83.00
15105;DHT22;7653;48.994;9.212;2023-07-31T03:40:30;14.70;82.50
15105;DHT22;7653;48.994;9.212;2023-07-31T03:42:56;14.80;80.40
15105;DHT22;7653;48.994;9.212;2023-07-31T03:45:22;14.70;77.40
15105;DHT22;7653;48.994;9.212;2023-07-31T03:47:47;14.70;78.00
15105;DHT22;7653;48.994;9.212;2023-07-31T03:50:13;14.70;78.60
15105;DHT22;7653;48.994;9.212;2023-07-31T03:52:38;14.70;80.60
15105;DHT22;7653;48.994;9.212;2023-07-31T03:55:04;14.60;82.10
15105;DHT22;7653;48.994;9.212;2023-07-31T03:57:30;14.60;81.70
15105;DHT22;7653;48.994;9.212;2023-07-31T03:59:58;14.60;83.20
15105;DHT22;7653;48.994;9.212;2023-07-31T04:02:23;14.60;83.20
15105;DHT22;7653;48.994;9.212;2023-07-31T04:04:49;14.50;83.80
15105;DHT22;7653;48.994;9.212;2023-07-31T04:07:15;14.50;84.80
15105;DHT22;7653;48.994;9.212;2023-07-31T04:09:40;14.40;83.00
15105;DHT22;7653;48.994;9.212;2023-07-31T04:12:06;14.50;81.60
15105;DHT22;7653;48.994;9.212;2023-07-31T04:14:32;14.40;80.00
15105;DHT22;7653;48.994;9.212;2023-07-31T04:16:57;14.40;80.90
15105;DHT22;7653;48.994;9.212;2023-07-31T04:19:23;14.40;81.70
15105;DHT22;7653;48.994;9.212;2023-07-31T04:21:49;14.20;83.50
15105;DHT22;7653;48.994;9.212;2023-07-31T04:24:15;14.10;87.30
15105;DHT22;7653;48.994;9.212;2023-07-31T04:26:41;14.20;88.90
15105;DHT22;7653;48.994;9.212;2023-07-31T04:29:06;14.10;88.30
15105;DHT22;7653;48.994;9.212;2023-07-31T04:31:33;14.20;89.40
15105;DHT22;7653;48.994;9.212;2023-07-31T04:33:59;14.30;87.80
15105;DHT22;7653;48.994;9.212;2023-07-31T04:36:25;14.50;86.10
15105;DHT22;7653;48.994;9.212;2023-07-31T04:38:50;14.60;82.90
15105;DHT22;7653;48.994;9.212;2023-07-31T04:41:16;14.60;80.90
15105;DHT22;7653;48.994;9.212;2023-07-31T04:43:41;14.80;78.70
15105;DHT22;7653;48.994;9.212;2023-07-31T04:46:07;14.80;80.50
15105;DHT22;7653;48.994;9.212;2023-07-31T04:48:33;14.90;82.20
15105;DHT22;7653;48.994;9.212;2023-07-31T04:50:58;15.10;82.30
15105;DHT22;7653;48.994;9.212;2023-07-31T04:53:24;15.10;81.20
15105;DHT22;7653;48.994;9.212;2023-07-31T04:55:49;15.20;78.30
15105;DHT22;7653;48.994;9.212;2023-07-31T04:58:15;15.30;76.10
15105;DHT22;7653;48.994;9.212;2023-07-31T05:00:41;15.50;73.00
15105;DHT22;7653;48.994;9.212;2023-07-31T05:03:06;15.50;70.30
15105;DHT22;7653;48.994;9.212;2023-07-31T05:05:32;15.60;72.70
15105;DHT22;7653;48.994;9.212;2023-07-31T05:07:58;15.70;71.50
15105;DHT22;7653;48.994;9.212;2023-07-31T05:10:24;15.70;69.80
15105;DHT22;7653;48.994;9.212;2023-07-31T05:12:49;15.80;68.20
15105;DHT22;7653;48.994;9.212;2023-07-31T05:15:15;15.90;68.00
15105;DHT22;7653;48.994;9.212;2023-07-31T05:17:40;16.00;67.90
15105;DHT22;7653;48.994;9.212;2023-07-31T05:20:07;16.20;67.30
15105;DHT22;7653;48.994;9.212;2023-07-31T05:22:32;16.20;67.60
15105;DHT22;7653;48.994;9.212;2023-07-31T05:24:58;16.30;64.20
15105;DHT22;7653;48.994;9.212;2023-07-31T05:27:24;16.30;65.60
15105;DHT22;7653;48.994;9.212;2023-07-31T05:29:49;16.30;61.00
15105;DHT22;7653;48.994;9.212;2023-07-31T05:32:15;16.50;61.10
15105;DHT22;7653;48.994;9.212;2023-07-31T05:34:41;16.60;61.20
15105;DHT22;7653;48.994;9.212;2023-07-31T05:37:06;16.80;61.10
15105;DHT22;7653;48.994;9.212;2023-07-31T05:39:32;16.90;56.70
15105;DHT22;7653;48.994;9.212;2023-07-31T05:41:58;17.10;56.80
15105;DHT22;7653;48.994;9.212;2023-07-31T05:44:23;17.20;56.90
15105;DHT22;7653;48.994;9.212;2023-07-31T05:46:49;17.10;56.80
15105;DHT22;7653;48.994;9.212;2023-07-31T05:49:14;17.10;55.40
15105;DHT22;7653;48.994;9.212;2023-07-31T05:51:40;17.10;53.60
15105;DHT22;7653;48.994;9.212;2023-07-31T05:54:06;17.20;53.00
15105;DHT22;7653;48.994;9.212;2023-07-31T05:56:31;17.40;50.30
15105;DHT22;7653;48.994;9.212;2023-07-31T05:58:58;17.40;49.70
15105;DHT22;7653;48.994;9.212;2023-07-31T06:01:24;17.50;49.80
15105;DHT22;7653;48.994;9.212;2023-07-31T06:03:50;17.60;50.00
15105;DHT22;7653;48.994;9.212;2023-07-31T06:06:15;17.80;47.70
15105;DHT22;7653;48.994;9.212;2023-07-31T06:08:41;18.00;45.00
15105;DHT22;7653;48.994;9.212;2023-07-31T06:11:07;18.10;46.40
15105;DHT22;7653;48.994;9.212;2023-07-31T06:13:34;18.10;47.90
15105;DHT22;7653;48.994;9.212;2023-07-31T06:16:00;18.00;46.60
15105;DHT22;7653;48.994;9.212;2023-07-31T06:18:31;18.30;44.10
15105;DHT22;7653;48.994;9.212;2023-07-31T06:20:56;18.50;45.40
15105;DHT22;7653;48.994;9.212;2023-07-31T06:23:22;18.60;43.40
15105;DHT22;7653;48.994;9.212;2023-07-31T06:25:48;18.80;41.80
15105;DHT22;7653;48.994;9.212;2023-07-31T06:28:13;18.80;38.40
15105;DHT22;7653;48.994;9.212;2023-07-31T06:30:39;18.90;38.60
15105;DHT22;7653;48.994;9.212;2023-07-31T06:33:05;19.00;40.10
15105;DHT22;7653;48.994;9.212;2023-07-31T06:35:30;19.30;37.80
15105;DHT22;7653;48.994;9.212;2023-07-31T06:37:56;19.50;36.30
15105;DHT22;7653;48.994;9.212;2023-07-31T06:40:22;19.50;36.10
15105;DHT22;7653;48.994;9.212;2023-07-31T06:42:48;19.60;36.20
15105;DHT22;7653;48.994;9.212;2023-07-31T06:45:13;19.70;34.90
15105;DHT22;7653;48.994;9.212;2023-07-31T06:47:39;19.70;32.50
15105;DHT22;7653;48.994;9.212;2023-07-31T06:50:05;20.00;34.10
15105;DHT22;7653;48.994;9.212;2023-07-31T06:52:31;20.40;30.70
15105;DHT22;7653;48.994;9.212;2023-07-31T06:55:15;20.50;30.00
15105;DHT22;7653;48.994;9.212;2023-07-31T06:57:43;20.40;30.00
15105;DHT22;7653;48.994;9.212;2023-07-31T07:00:09;20.30;29.70
15105;DHT22;7653;48.994;9.212;2023-07-31T07:02:35;20.30;30.30
15105;DHT22;7653;48.994;9.212;2023-07-31T07:05:00;20.30;29.00
15105;DHT22;7653;48.994;9.212;2023-07-31T07:07:26;20.30;29.10
15105;DHT22;7653;48.994;9.212;2023-07-31T07:09:52;20.30;28.30
15105;DHT22;7653;48.994;9.212;2023-07-31T07:12:17;20.40;28.40
15105;DHT22;7653;48.994;9.212;2023-07-31T07:14:43;20.50;29.80
15105;DHT22;7653;48.994;9.212;2023-07-31T07:17:09;20.50;28.80
15105;DHT22;7653;48.994;9.212;2023-07-31T07:19:34;20.40;27.20
15105;DHT22;7653;48.994;9.212;2023-07-31T07:22:00;20.40;29.70
15105;DHT22;7653;48.994;9.212;2023-07-31T07:24:27;20.50;26.00
15105;DHT22;7653;48.994;9.212;2023-07-31T07:26:53;20.60;27.50
15105;DHT22;7653;48.994;9.212;2023-07-31T07:29:18;20.50;26.30
15105;DHT22;7653;48.994;9.212;2023-07-31T07:31:44;20.50;27.90
15105;DHT22;7653;48.994;9.212;2023-07-31T07:34:10;20.50;25.70
15105;DHT22;7653;48.994;9.212;2023-07-31T07:36:35;20.40;26.00
15105;DHT22;7653;48.994;9.212;2023-07-31T07:39:01;20.50;26.80
15105;DHT22;7653;48.994;9.212;2023-07-31T07:41:26;20.70;26.70
15105;DHT22;7653;48.994;9.212;2023-07-31T07:43:52;20.80;25.90
15105;DHT22;7653;48.994;9.212;2023-07-31T07:46:18;20.80;27.20
15105;DHT22;7653;48.994;9.212;2023-07-31T07:48:43;20.90;26.80
15105;DHT22;7653;48.994;9.212;2023-07-31T07:51:09;20.90;28.90
15105;DHT22;7653;48.994;9.212;2023-07-31T07:53:34;21.00;28.70
15105;DHT22;7653;48.994;9.212;2023-07-31T07:56:00;21.00;26.60
15105;DHT22;7653;48.994;9.212;2023-07-31T07:58:26;21.30;28.10
15105;DHT22;7653;48.994;9.212;2023-07-31T08:00:51;21.60;26.40
15105;DHT22;7653;48.994;9.212;2023-07-31T08:03:17;21.70;26.50
15105;DHT22;7653;48.994;9.212;2023-07-31T08:05:44;21.80;23.90
15105;DHT22;7653;48.994;9.212;2023-07-31T08:08:14;21.70;24.10
15105;DHT22;7653;48.994;9.212;2023-07-31T08:10:41;21.40;22.80
15105;DHT22;7653;48.994;9.212;2023-07-31T08:13:07;21.10;23.10
15105;DHT22;7653;48.994;9.212;2023-07-31T08:15:33;21.00;23.00
15105;DHT22;7653;48.994;9.212;2023-07-31T08:17:58;21.10;23.50
15105;DHT22;7653;48.994;9.212;2023-07-31T08:20:24;21.40;24.30
15105;DHT22;7653;48.994;9.212;2023-07-31T08:22:51;21.50;24.30
15105;DHT22;7653;48.994;9.212;2023-07-31T08:25:18;21.70;26.60
15105;DHT22;7653;48.994;9.212;2023-07-31T08:27:44;21.70;23.70
15105;DHT22;7653;48.994;9.212;2023-07-31T08:30:11;21.80;22.50
15105;DHT22;7653;48.994;9.212;2023-07-31T08:32:37;21.80;24.50
15105;DHT22;7653;48.994;9.212;2023-07-31T08:35:03;22.00;23.90
15105;DHT22;7653;48.994;9.212;2023-07-31T08:37:28;22.30;22.80
15105;DHT22;7653;48.994;9.212;2023-07-31T08:39:54;22.10;22.70
15105;DHT22;7653;48.994;9.212;2023-07-31T08:42:20;21.90;21.70
15105;DHT22;7653;48.994;9.212;2023-07-31T08:44:46;21.90;23.90
15105;DHT22;7653;48.994;9.212;2023-07-31T08:47:13;21.80;22.70
15105;DHT22;7653;48.994;9.212;2023-07-31T08:49:41;21.90;23.40
15105;DHT22;7653;48.994;9.212;2023-07-31T08:52:07;22.10;23.90
15105;DHT22;7653;48.994;9.212;2023-07-31T08:54:33;22.10;22.00
15105;DHT22;7653;48.994;9.212;2023-07-31T08:56:59;22.00;22.60
15105;DHT22;7653;48.994;9.212;2023-07-31T08:59:28;22.10;21.90
15105;DHT22;7653;48.994;9.212;2023-07-31T09:01:56;22.10;22.70
15105;DHT22;7653;48.994;9.212;2023-07-31T09:04:23;22.30;22.00
15105;DHT22;7653;48.994;9.212;2023-07-31T09:06:51;22.10;22.70
15105;DHT22;7653;48.994;9.212;2023-07-31T09:09:18;22.10;23.20
15105;DHT22;7653;48.994;9.212;2023-07-31T09:11:46;22.40;22.30
15105;DHT22;7653;48.994;9.212;2023-07-31T09:14:12;22.50;22.00
15105;DHT22;7653;48.994;9.212;2023-07-31T09:16:58;22.30;24.30
15105;DHT22;7653;48.994;9.212;2023-07-31T09:19:32;22.10;22.70
15105;DHT22;7653;48.994;9.212;2023-07-31T09:21:59;22.20;21.90
15105;DHT22;7653;48.994;9.212;2023-07-31T09:24:26;22.30;20.40
15105;DHT22;7653;48.994;9.212;2023-07-31T09:26:54;22.40;20.20
15105;DHT22;7653;48.994;9.212;2023-07-31T09:29:21;22.00;20.40
15105;DHT22;7653;48.994;9.212;2023-07-31T09:31:46;22.00;21.50
15105;DHT22;7653;48.994;9.212;2023-07-31T09:34:12;22.40;21.50
15105;DHT22;7653;48.994;9.212;2023-07-31T09:36:50;22.50;20.90
15105;DHT22;7653;48.994;9.212;2023-07-31T09:39:17;22.40;19.70
15105;DHT22;7653;48.994;9.212;2023-07-31T09:41:44;22.20;19.90
15105;DHT22;7653;48.994;9.212;2023-07-31T09:44:11;22.40;21.00
15105;DHT22;7653;48.994;9.212;2023-07-31T09:46:37;22.30;19.90
15105;DHT22;7653;48.994;9.212;2023-07-31T09:49:04;22.40;19.20
15105;DHT22;7653;48.994;9.212;2023-07-31T09:51:31;22.50;22.20
15105;DHT22;7653;48.994;9.212;2023-07-31T09:53:57;22.50;20.70
15105;DHT22;7653;48.994;9.212;2023-07-31T09:56:23;22.70;20.70
15105;DHT22;7653;48.994;9.212;2023-07-31T09:58:49;22.70;18.80
15105;DHT22;7653;48.994;9.212;2023-07-31T10:01:15;22.50;20.80
15105;DHT22;7653;48.994;9.212;2023-07-31T10:03:42;22.70;20.40
15105;DHT22;7653;48.994;9.212;2023-07-31T10:06:09;22.80;19.10
15105;DHT22;7653;48.994;9.212;2023-07-31T10:08:36;22.90;19.00
15105;DHT22;7653;48.994;9.212;2023-07-31T10:11:04;22.70;18.80
15105;DHT22;7653;48.994;9.212;2023-07-31T10:13:31;22.70;19.70
15105;DHT22;7653;48.994;9.212;2023-07-31T10:15:59;22.60;20.00
15105;DHT22;7653;48.994;9.212;2023-07-31T10:18:26;22.80;20.70
15105;DHT22;7653;48.994;9.212;2023-07-31T10:20:53;23.00;19.90
15105;DHT22;7653;48.994;9.212;2023-07-31T10:23:20;23.30;18.60
15105;DHT22;7653;48.994;9.212;2023-07-31T10:25:46;23.40;19.30
15105;DHT22;7653;48.994;9.212;2023-07-31T10:28:12;23.60;17.40
15105;DHT22;7653;48.994;9.212;2023-07-31T10:30:39;23.60;17.20
15105;DHT22;7653;48.994;9.212;2023-07-31T10:33:06;23.50;19.40
15105;DHT22;7653;48.994;9.212;2023-07-31T10:35:33;23.20;18.30
15105;DHT22;7653;48.994;9.212;2023-07-31T10:38:11;23.30;17.20
15105;DHT22;7653;48.994;9.212;2023-07-31T10:40:38;23.10;18.90
15105;DHT22;7653;48.994;9.212;2023-07-31T10:43:05;23.10;17.60
15105;DHT22;7653;48.994;9.212;2023-07-31T10:45:34;23.20;17.30
15105;DHT22;7653;48.994;9.212;2023-07-31T10:48:12;23.00;19.70
15105;DHT22;7653;48.994;9.212;2023-07-31T10:50:40;23.20;19.20
15105;DHT22;7653;48.994;9.212;2023-07-31T10:53:26;23.20;18.40
15105;DHT22;7653;48.994;9.212;2023-07-31T10:55:52;23.20;17.80
15105;DHT22;7653;48.994;9.212;2023-07-31T10:58:21;23.30;18.50
15105;DHT22;7653;48.994;9.212;2023-07-31T11:00:47;23.30;18.30
15105;DHT22;7653;48.994;9.212;2023-07-31T11:03:17;23.60;18.10
15105;DHT22;7653;48.994;9.212;2023-07-31T11:08:17;23.30;17.60
15105;DHT22;7653;48.994;9.212;2023-07-31T11:10:45;23.50;16.30
15105;DHT22;7653;48.994;9.212;2023-07-31T11:13:11;23.50;19.40
15105;DHT22;7653;48.994;9.212;2023-07-31T11:15:37;23.50;15.90
15105;DHT22;7653;48.994;9.212;2023-07-31T11:18:03;23.70;16.70
15105;DHT22;7653;48.994;9.212;2023-07-31T11:20:34;23.70;16.30
15105;DHT22;7653;48.994;9.212;2023-07-31T11:23:08;23.60;17.00
15105;DHT22;7653;48.994;9.212;2023-07-31T11:25:40;23.60;16.90
15105;DHT22;7653;48.994;9.212;2023-07-31T11:28:10;23.80;17.30
15105;DHT22;7653;48.994;9.212;2023-07-31T11:30:36;23.70;15.20
15105;DHT22;7653;48.994;9.212;2023-07-31T11:33:04;23.70;15.20
15105;DHT22;7653;48.994;9.212;2023-07-31T11:35:31;23.90;15.30
15105;DHT22;7653;48.994;9.212;2023-07-31T11:37:57;24.00;15.40
15105;DHT22;7653;48.994;9.212;2023-07-31T11:40:22;23.60;15.10
15105;DHT22;7653;48.994;9.212;2023-07-31T11:42:54;23.30;15.70
15105;DHT22;7653;48.994;9.212;2023-07-31T11:45:20;23.20;15.70
15105;DHT22;7653;48.994;9.212;2023-07-31T11:47:45;23.50;16.40
15105;DHT22;7653;48.994;9.212;2023-07-31T11:50:11;23.80;15.30
15105;DHT22;7653;48.994;9.212;2023-07-31T11:52:42;23.70;17.20
15105;DHT22;7653;48.994;9.212;2023-07-31T11:55:11;24.10;15.50
15105;DHT22;7653;48.994;9.212;2023-07-31T11:57:39;24.00;15.40
15105;DHT22;7653;48.994;9.212;2023-07-31T12:00:07;24.00;15.40
15105;DHT22;7653;48.994;9.212;2023-07-31T12:02:34;23.90;15.30
15105;DHT22;7653;48.994;9.212;2023-07-31T12:05:01;23.80;15.30
15105;DHT22;7653;48.994;9.212;2023-07-31T12:07:26;23.90;15.30
15105;DHT22;7653;48.994;9.212;2023-07-31T12:09:55;23.50;16.70
15105;DHT22;7653;48.994;9.212;2023-07-31T12:12:25;23.60;16.30
15105;DHT22;7653;48.994;9.212;2023-07-31T12:14:51;23.60;16.40
15105;DHT22;7653;48.994;9.212;2023-07-31T12:17:19;23.70;16.50
15105;DHT22;7653;48.994;9.212;2023-07-31T12:19:45;24.10;16.70
15105;DHT22;7653;48.994;9.212;2023-07-31T12:22:15;24.60;14.90
15105;DHT22;7653;48.994;9.212;2023-07-31T12:24:42;24.30;15.60
15105;DHT22;7653;48.994;9.212;2023-07-31T12:27:15;24.60;15.80
15105;DHT22;7653;48.994;9.212;2023-07-31T12:29:43;24.50;14.40
15105;DHT22;7653;48.994;9.212;2023-07-31T12:32:23;24.20;15.10
15105;DHT22;7653;48.994;9.212;2023-07-31T12:34:50;24.00;14.60
15105;DHT22;7653;48.994;9.212;2023-07-31T12:37:16;24.00;15.40
15105;DHT22;7653;48.994;9.212;2023-07-31T12:39:42;23.90;16.30
15105;DHT22;7653;48.994;9.212;2023-07-31T12:42:08;23.80;15.50
15105;DHT22;7653;48.994;9.212;2023-07-31T12:44:33;23.80;15.30
15105;DHT22;7653;48.994;9.212;2023-07-31T12:46:59;23.80;16.30
15105;DHT22;7653;48.994;9.212;2023-07-31T12:49:24;23.90;15.30
15105;DHT22;7653;48.994;9.212;2023-07-31T12:51:50;23.90;15.30
15105;DHT22;7653;48.994;9.212;2023-07-31T12:54:16;23.80;15.30
15105;DHT22;7653;48.994;9.212;2023-07-31T12:56:41;23.80;15.30
15105;DHT22;7653;48.994;9.212;2023-07-31T12:59:07;23.90;15.80
15105;DHT22;7653;48.994;9.212;2023-07-31T13:01:33;24.10;16.70
15105;DHT22;7653;48.994;9.212;2023-07-31T13:03:58;24.40;15.70
15105;DHT22;7653;48.994;9.212;2023-07-31T13:06:25;24.50;15.10
15105;DHT22;7653;48.994;9.212;2023-07-31T13:08:51;24.20;14.30
15105;DHT22;7653;48.994;9.212;2023-07-31T13:11:17;24.00;15.80
15105;DHT22;7653;48.994;9.212;2023-07-31T13:13:42;23.70;15.20
15105;DHT22;7653;48.994;9.212;2023-07-31T13:16:08;23.30;14.90
15105;DHT22;7653;48.994;9.212;2023-07-31T13:18:34;23.40;16.10
15105;DHT22;7653;48.994;9.212;2023-07-31T13:20:59;23.50;15.10
15105;DHT22;7653;48.994;9.212;2023-07-31T13:23:25;23.40;16.20
15105;DHT22;7653;48.994;9.212;2023-07-31T13:25:50;23.40;16.00
15105;DHT22;7653;48.994;9.212;2023-07-31T13:28:16;23.40;16.10
15105;DHT22;7653;48.994;9.212;2023-07-31T13:30:42;23.40;16.60
15105;DHT22;7653;48.994;9.212;2023-07-31T13:33:07;23.50;17.60
15105;DHT22;7653;48.994;9.212;2023-07-31T13:35:33;23.60;17.10
15105;DHT22;7653;48.994;9.212;2023-07-31T13:37:59;23.30;18.20
15105;DHT22;7653;48.994;9.212;2023-07-31T13:40:24;23.40;17.80
15105;DHT22;7653;48.994;9.212;2023-07-31T13:42:50;23.60;17.70
15105;DHT22;7653;48.994;9.212;2023-07-31T13:45:16;23.60;16.50
15105;DHT22;7653;48.994;9.212;2023-07-31T13:47:41;23.70;17.10
15105;DHT22;7653;48.994;9.212;2023-07-31T13:50:07;23.80;16.60
15105;DHT22;7653;48.994;9.212;2023-07-31T13:52:33;23.70;17.50
15105;DHT22;7653;48.994;9.212;2023-07-31T13:54:59;23.70;17.00
15105;DHT22;7653;48.994;9.212;2023-07-31T13:57:25;23.60;17.40
15105;DHT22;7653;48.994;9.212;2023-07-31T13:59:50;23.70;19.20
15105;DHT22;7653;48.994;9.212;2023-07-31T14:02:16;24.20;16.20
15105;DHT22;7653;48.994;9.212;2023-07-31T14:04:41;24.50;18.30
15105;DHT22;7653;48.994;9.212;2023-07-31T14:07:07;24.60;15.20
15105;DHT22;7653;48.994;9.212;2023-07-31T14:09:33;24.60;15.00
15105;DHT22;7653;48.994;9.212;2023-07-31T14:11:58;24.50;15.10
15105;DHT22;7653;48.994;9.212;2023-07-31T14:14:24;24.80;15.40
15105;DHT22;7653;48.994;9.212;2023-07-31T14:16:49;24.90;15.70
15105;DHT22;7653;48.994;9.212;2023-07-31T14:19:15;24.80;14.20
15105;DHT22;7653;48.994;9.212;2023-07-31T14:21:41;24.80;14.80
15105;DHT22;7653;48.994;9.212;2023-07-31T14:24:06;24.30;15.10
15105;DHT22;7653;48.994;9.212;2023-07-31T14:26:32;24.20;15.60
15105;DHT22;7653;48.994;9.212;2023-07-31T14:28:58;24.50;15.80
15105;DHT22;7653;48.994;9.212;2023-07-31T14:31:23;24.40;14.50
15105;DHT22;7653;48.994;9.212;2023-07-31T14:33:49;24.50;15.60
15105;DHT22;7653;48.994;9.212;2023-07-31T14:36:15;24.50;14.10
15105;DHT22;7653;48.994;9.212;2023-07-31T14:38:40;24.30;15.10
15105;DHT22;7653;48.994;9.212;2023-07-31T14:41:06;24.20;15.50
15105;DHT22;7653;48.994;9.212;2023-07-31T14:43:32;24.30;15.60
15105;DHT22;7653;48.994;9.212;2023-07-31T14:45:57;24.40;15.40
15105;DHT22;7653;48.994;9.212;2023-07-31T14:48:25;24.40;14.90
15105;DHT22;7653;48.994;9.212;2023-07-31T14:50:52;24.40;15.70
15105;DHT22;7653;48.994;9.212;2023-07-31T14:53:18;24.50;15.70
15105;DHT22;7653;48.994;9.212;2023-07-31T14:55:43;24.50;17.00
15105;DHT22;7653;48.994;9.212;2023-07-31T14:58:09;24.50;15.80
15105;DHT22;7653;48.994;9.212;2023-07-31T15:00:36;24.20;15.60
15105;DHT22;7653;48.994;9.212;2023-07-31T15:03:02;24.10;15.50
15105;DHT22;7653;48.994;9.212;2023-07-31T15:05:28;24.10;15.50
15105;DHT22;7653;48.994;9.212;2023-07-31T15:07:54;23.80;17.00
15105;DHT22;7653;48.994;9.212;2023-07-31T15:10:19;23.70;17.00
15105;DHT22;7653;48.994;9.212;2023-07-31T15:12:45;23.70;16.00
15105;DHT22;7653;48.994;9.212;2023-07-31T15:15:11;23.60;16.40
15105;DHT22;7653;48.994;9.212;2023-07-31T15:17:37;23.60;16.80
15105;DHT22;7653;48.994;9.212;2023-07-31T15:20:03;23.80;15.90
15105;DHT22;7653;48.994;9.212;2023-07-31T15:22:29;23.90;15.40
15105;DHT22;7653;48.994;9.212;2023-07-31T15:24:56;24.10;16.50
15105;DHT22;7653;48.994;9.212;2023-07-31T15:27:21;24.70;15.90
15105;DHT22;7653;48.994;9.212;2023-07-31T15:29:49;24.70;14.80
15105;DHT22;7653;48.994;9.212;2023-07-31T15:32:14;25.00;16.10
15105;DHT22;7653;48.994;9.212;2023-07-31T15:34:40;25.30;15.20
15105;DHT22;7653;48.994;9.212;2023-07-31T15:37:06;25.60;13.00
15105;DHT22;7653;48.994;9.212;2023-07-31T15:39:31;25.00;14.60
15105;DHT22;7653;48.994;9.212;2023-07-31T15:41:57;24.90;14.20
15105;DHT22;7653;48.994;9.212;2023-07-31T15:44:22;24.90;14.50
15105;DHT22;7653;48.994;9.212;2023-07-31T15:46:48;24.80;14.80
15105;DHT22;7653;48.994;9.212;2023-07-31T15:49:14;24.70;14.60
15105;DHT22;7653;48.994;9.212;2023-07-31T15:51:39;24.90;14.10
15105;DHT22;7653;48.994;9.212;2023-07-31T15:54:05;24.60;15.80